createdAt,value
2023-06-06T03:30:52.236Z,14.84
2023-06-06T03:33:55.123Z,15.35
2023-06-06T03:36:57.954Z,15.92
2023-06-06T03:40:01.883Z,16.24
2023-06-06T03:43:07.800Z,16.69
2023-06-06T03:46:13.753Z,17.21
2023-06-06T03:49:16.604Z,17.58
2023-06-06T03:52:19.448Z,17.93
2023-06-06T03:55:23.709Z,18.21
2023-06-06T03:58:27.274Z,18.45
2023-06-06T04:01:32.487Z,18.66
2023-06-06T04:04:35.502Z,18.84
2023-06-06T04:07:38.237Z,19.37
2023-06-06T04:10:40.857Z,19.50
2023-06-06T04:13:43.402Z,19.82
2023-06-06T04:16:47.502Z,19.91
2023-06-06T04:19:51.089Z,20.22
2023-06-06T04:22:53.740Z,20.25
2023-06-06T04:25:57.328Z,20.25
2023-06-06T04:29:01.449Z,19.80
2023-06-06T04:32:08.317Z,20.25
2023-06-06T04:35:12.912Z,20.38
2023-06-06T04:38:20.184Z,20.65
2023-06-06T04:44:29.137Z,20.68
2023-06-06T04:47:33.896Z,20.64
2023-06-06T04:50:36.564Z,20.85
2023-06-06T04:53:46.330Z,21.10
2023-06-06T04:56:49.072Z,21.23
2023-06-06T04:59:53.300Z,21.27
2023-06-06T05:02:57.744Z,21.41
2023-06-06T05:06:01.645Z,21.18
2023-06-06T05:09:05.957Z,19.73
2023-06-06T05:12:09.473Z,18.77
2023-06-06T05:15:12.595Z,18.37
2023-06-06T05:18:17.097Z,18.31
2023-06-06T05:21:20.337Z,18.43
2023-06-06T05:24:22.954Z,18.65
2023-06-06T05:27:25.475Z,18.84
2023-06-06T05:30:28.004Z,19.19
2023-06-06T05:33:32.701Z,19.36
2023-06-06T05:36:35.758Z,19.46
2023-06-06T05:39:38.309Z,19.72
2023-06-06T05:42:40.960Z,19.83
2023-06-06T05:45:45.484Z,20.12
2023-06-06T05:48:49.519Z,20.41
2023-06-06T05:51:52.118Z,20.80
2023-06-06T05:55:03.958Z,21.00
2023-06-06T05:58:06.876Z,21.38
2023-06-06T06:01:10.457Z,21.52
2023-06-06T06:04:44.717Z,21.86
2023-06-06T06:08:02.236Z,22.12
2023-06-06T06:11:07.648Z,21.87
2023-06-06T06:14:16.343Z,22.15
2023-06-06T06:17:24.123Z,22.23
2023-06-06T06:20:36.883Z,22.12
2023-06-06T06:23:39.800Z,22.36
2023-06-06T06:26:43.459Z,22.43
2023-06-06T06:29:46.614Z,22.55
2023-06-06T06:32:49.336Z,22.82
2023-06-06T06:35:53.426Z,23.42
2023-06-06T06:38:56.006Z,23.63
2023-06-06T06:41:58.559Z,23.78
2023-06-06T06:45:01.104Z,24.32
2023-06-06T06:48:03.792Z,24.38
2023-06-06T06:51:09.185Z,24.78
2023-06-06T06:54:12.776Z,24.57
2023-06-06T06:57:15.317Z,24.60
2023-06-06T07:00:20.190Z,25.16
2023-06-06T07:03:22.874Z,25.44
2023-06-06T07:06:28.478Z,25.62
2023-06-06T07:09:31.146Z,26.08
2023-06-06T07:12:33.703Z,26.49
2023-06-06T07:15:38.637Z,26.67
2023-06-06T07:18:41.204Z,26.39
2023-06-06T07:21:45.057Z,26.37
2023-06-06T07:24:47.571Z,26.70
2023-06-06T07:27:50.197Z,27.11
2023-06-06T07:30:52.826Z,27.64
2023-06-06T07:33:56.443Z,27.96
2023-06-06T07:37:01.627Z,28.08
2023-06-06T07:40:06.522Z,28.07
2023-06-06T07:43:09.204Z,27.72
2023-06-06T07:46:11.882Z,28.09
2023-06-06T07:49:14.426Z,28.60
2023-06-06T07:52:18.584Z,28.42
2023-06-06T07:55:21.818Z,28.87
2023-06-06T07:58:27.411Z,29.16
2023-06-06T08:01:31.084Z,29.08
2023-06-06T08:04:33.610Z,29.35
2023-06-06T08:07:39.568Z,29.23
2023-06-06T08:10:42.214Z,29.53
2023-06-06T08:13:44.960Z,29.49
2023-06-06T08:16:47.706Z,29.04
2023-06-06T08:19:50.235Z,29.53
2023-06-06T08:22:55.110Z,30.15
2023-06-06T08:25:58.945Z,30.16
2023-06-06T08:29:01.782Z,30.30
2023-06-06T08:32:05.854Z,29.88
2023-06-06T08:35:09.672Z,30.02
2023-06-06T08:38:13.548Z,30.35
2023-06-06T08:41:17.960Z,30.69
2023-06-06T08:44:22.406Z,29.74
2023-06-06T08:47:28.154Z,29.35
2023-06-06T08:50:31.651Z,28.96
2023-06-06T08:53:35.540Z,29.22
2023-06-06T08:56:39.134Z,29.59
2023-06-06T08:59:43.055Z,30.48
2023-06-06T09:02:46.717Z,30.47
2023-06-06T09:05:50.822Z,29.98
2023-06-06T09:08:56.330Z,29.93
2023-06-06T09:11:58.844Z,30.15
2023-06-06T09:15:01.386Z,30.71
2023-06-06T09:18:04.019Z,30.46
2023-06-06T09:21:07.044Z,30.30
2023-06-06T09:24:11.048Z,29.93
2023-06-06T09:27:29.856Z,30.18
2023-06-06T09:30:34.379Z,30.36
2023-06-06T09:33:41.270Z,29.65
2023-06-06T09:36:45.612Z,29.77
2023-06-06T09:40:11.447Z,30.27
2023-06-06T09:43:14.484Z,30.11
2023-06-06T09:46:18.411Z,30.43
2023-06-06T09:49:22.019Z,30.37
2023-06-06T09:52:24.766Z,30.39
2023-06-06T09:55:28.762Z,30.37
2023-06-06T09:58:33.038Z,30.57
2023-06-06T10:01:38.580Z,31.52
2023-06-06T10:04:42.390Z,31.61
2023-06-06T10:07:46.921Z,31.44
2023-06-06T10:10:53.674Z,32.10
2023-06-06T10:13:59.918Z,32.26
2023-06-06T10:17:03.260Z,30.86
2023-06-06T10:20:10.873Z,30.91
2023-06-06T10:23:13.633Z,31.14
2023-06-06T10:26:24.617Z,29.91
2023-06-06T10:29:31.352Z,30.22
2023-06-06T10:32:46.782Z,31.08
2023-06-06T10:35:53.029Z,31.69
2023-06-06T10:39:20.758Z,31.61
2023-06-06T10:42:36.628Z,31.31
2023-06-06T10:45:46.414Z,30.93
2023-06-06T10:48:57.190Z,30.27
2023-06-06T10:52:07.302Z,30.92
2023-06-06T10:55:16.549Z,31.64
2023-06-06T10:58:24.532Z,31.67
2023-06-06T11:01:29.151Z,31.05
2023-06-06T11:04:31.785Z,31.59
2023-06-06T11:07:34.822Z,31.75
2023-06-06T11:10:46.974Z,31.33
2023-06-06T11:13:57.694Z,31.40
2023-06-06T11:17:03.919Z,30.31
2023-06-06T11:20:09.260Z,30.40
2023-06-06T11:23:13.084Z,29.85
2023-06-06T11:26:17.044Z,30.17
2023-06-06T11:29:21.991Z,30.32
2023-06-06T11:32:25.475Z,30.69
2023-06-06T11:35:30.089Z,31.74
2023-06-06T11:38:34.709Z,31.92
2023-06-06T11:41:38.054Z,31.30
2023-06-06T11:44:41.973Z,31.51
2023-06-06T11:47:45.005Z,30.19
2023-06-06T11:50:47.795Z,30.46
2023-06-06T11:53:50.330Z,30.22
2023-06-06T11:56:54.018Z,29.42
2023-06-06T12:00:00.451Z,28.79
2023-06-06T12:03:05.470Z,27.98
2023-06-06T12:06:10.364Z,27.88
2023-06-06T12:09:13.048Z,28.70
2023-06-06T12:12:15.797Z,30.51
2023-06-06T12:15:19.786Z,30.77
2023-06-06T12:18:22.306Z,31.73
2023-06-06T12:21:25.254Z,32.79
2023-06-06T12:24:29.166Z,29.81
2023-06-06T12:27:35.041Z,29.16
2023-06-06T12:30:40.282Z,30.87
2023-06-06T12:33:45.952Z,30.14
2023-06-06T12:36:53.648Z,29.06
2023-06-06T12:39:56.227Z,28.37
2023-06-06T12:43:00.166Z,29.00
2023-06-06T12:46:04.110Z,30.15
2023-06-06T12:49:07.347Z,29.61
2023-06-06T12:52:10.356Z,28.48
2023-06-06T12:55:13.870Z,27.96
2023-06-06T12:58:18.702Z,27.87
2023-06-06T13:01:24.382Z,27.56
2023-06-06T13:04:28.033Z,27.37
2023-06-06T13:07:32.903Z,27.16
2023-06-06T13:10:35.722Z,27.10
2023-06-06T13:13:39.362Z,26.65
2023-06-06T13:16:43.546Z,26.38
2023-06-06T13:19:47.090Z,26.18
2023-06-06T13:22:49.626Z,26.26
2023-06-06T13:25:53.486Z,27.69
2023-06-06T13:28:56.339Z,28.06
2023-06-06T13:32:00.305Z,28.11
2023-06-06T13:35:02.926Z,27.87
2023-06-06T13:38:06.208Z,28.88
2023-06-06T13:41:09.021Z,28.28
2023-06-06T13:44:17.642Z,27.19
2023-06-06T13:47:21.545Z,26.79
2023-06-06T13:50:24.049Z,26.78
2023-06-06T13:53:26.570Z,26.69
2023-06-06T13:56:29.091Z,26.68
2023-06-06T13:59:33.372Z,27.06
2023-06-06T14:02:37.309Z,27.29
2023-06-06T14:05:40.295Z,27.92
2023-06-06T14:08:43.270Z,28.97
2023-06-06T14:11:48.155Z,30.94
2023-06-06T14:14:50.784Z,31.80
2023-06-06T14:17:56.962Z,31.90
2023-06-06T14:21:20.839Z,32.11
2023-06-06T14:24:23.476Z,32.08
2023-06-06T14:27:29.957Z,31.85
2023-06-06T14:30:32.535Z,30.61
2023-06-06T14:33:36.395Z,29.86
2023-06-06T14:36:38.934Z,29.29
2023-06-06T14:39:41.997Z,28.97
2023-06-06T14:42:44.567Z,28.48
2023-06-06T14:45:47.270Z,28.09
2023-06-06T14:48:51.133Z,27.94
2023-06-06T14:51:54.375Z,27.98
2023-06-06T14:54:56.923Z,27.94
2023-06-06T14:57:59.511Z,27.89
2023-06-06T15:01:02.297Z,27.79
2023-06-06T15:04:09.056Z,27.71
2023-06-06T15:07:13.690Z,28.73
2023-06-06T15:10:16.320Z,29.79
2023-06-06T15:13:20.438Z,29.54
2023-06-06T15:16:23.065Z,29.01
2023-06-06T15:19:26.944Z,28.86
2023-06-06T15:22:29.575Z,28.73
2023-06-06T15:25:32.402Z,28.14
2023-06-06T15:28:42.412Z,27.58
2023-06-06T15:31:45.179Z,27.05
2023-06-06T15:34:49.593Z,26.55
2023-06-06T15:37:52.419Z,26.20
2023-06-06T15:40:55.167Z,26.00
2023-06-06T15:43:57.779Z,25.96
2023-06-06T15:47:00.451Z,25.86
2023-06-06T15:50:04.760Z,25.99
2023-06-06T15:53:07.424Z,26.05
2023-06-06T15:56:09.989Z,26.03
2023-06-06T15:59:12.537Z,25.94
2023-06-06T16:02:15.647Z,25.90
2023-06-06T16:05:19.752Z,25.87
2023-06-06T16:08:22.370Z,25.93
2023-06-06T16:11:25.853Z,25.72
2023-06-06T16:14:29.200Z,25.67
2023-06-06T16:17:33.998Z,25.63
2023-06-06T16:20:37.935Z,25.60
2023-06-06T16:23:46.604Z,25.51
2023-06-06T16:26:49.305Z,25.41
2023-06-06T16:29:51.917Z,25.32
2023-06-06T16:32:54.577Z,25.18
2023-06-06T16:35:58.484Z,25.03
2023-06-06T16:39:01.218Z,24.85
2023-06-06T16:42:04.172Z,24.54
2023-06-06T16:45:08.038Z,24.30
2023-06-06T16:48:13.171Z,24.22
2023-06-06T16:51:18.300Z,24.09
2023-06-06T16:54:21.704Z,23.94
2023-06-06T16:57:24.339Z,23.89
2023-06-06T17:00:26.884Z,23.87
2023-06-06T17:03:29.618Z,23.84
2023-06-06T17:06:33.637Z,23.79
2023-06-06T17:09:36.868Z,23.81
2023-06-06T17:12:39.401Z,23.81
2023-06-06T17:15:42.827Z,23.80
2023-06-06T17:18:45.453Z,23.82
2023-06-06T17:21:49.421Z,23.86
2023-06-06T17:24:52.722Z,23.92
2023-06-06T17:27:55.334Z,23.92
2023-06-06T17:30:59.597Z,23.90
2023-06-06T17:34:02.164Z,23.91
2023-06-06T17:37:06.154Z,23.90
2023-06-06T17:40:10.234Z,23.90
2023-06-06T17:43:13.182Z,23.83
2023-06-06T17:46:16.308Z,23.83
2023-06-06T17:49:19.112Z,23.84
2023-06-06T17:52:23.000Z,23.81
2023-06-06T17:55:26.005Z,23.72
2023-06-06T17:58:28.733Z,23.66
2023-06-06T18:01:31.513Z,23.63
2023-06-06T18:04:34.114Z,23.53
2023-06-06T18:07:38.173Z,23.49
2023-06-06T18:10:40.761Z,23.38
2023-06-06T18:13:43.385Z,23.18
2023-06-06T18:16:46.459Z,23.03
2023-06-06T18:19:49.122Z,22.87
2023-06-06T18:23:00.067Z,22.76
2023-06-06T18:26:03.081Z,22.56
2023-06-06T18:29:09.070Z,22.35
2023-06-06T18:32:13.100Z,22.18
2023-06-06T18:35:15.741Z,22.01
2023-06-06T18:38:19.697Z,21.86
2023-06-06T18:41:22.234Z,21.74
2023-06-06T18:44:24.981Z,21.63
2023-06-06T18:47:27.833Z,21.46
2023-06-06T18:50:30.757Z,21.39
2023-06-06T18:53:34.720Z,21.23
2023-06-06T18:56:38.010Z,21.19
2023-06-06T18:59:40.556Z,21.00
2023-06-06T19:02:43.919Z,20.88
2023-06-06T19:05:46.626Z,20.69
2023-06-06T19:08:51.513Z,20.43
2023-06-06T19:11:54.116Z,19.95
2023-06-06T19:14:57.268Z,19.65
2023-06-06T19:17:59.861Z,19.45
2023-06-06T19:21:02.487Z,19.25
2023-06-06T19:24:08.909Z,19.12
2023-06-06T19:27:12.028Z,18.97
2023-06-06T19:30:16.652Z,18.85
2023-06-06T19:33:19.320Z,18.72
2023-06-06T19:36:21.859Z,18.65
2023-06-06T19:39:25.818Z,18.48
2023-06-06T19:42:28.504Z,18.19
2023-06-06T19:45:31.386Z,17.99
2023-06-06T19:48:34.026Z,17.84
2023-06-06T19:51:37.627Z,17.73
2023-06-06T19:54:41.562Z,17.56
2023-06-06T19:57:44.938Z,17.44
2023-06-06T20:00:47.502Z,17.44
2023-06-06T20:03:50.133Z,17.53
2023-06-06T20:06:54.181Z,17.52
2023-06-06T20:09:58.071Z,17.52
2023-06-06T20:13:00.779Z,17.39
2023-06-06T20:16:03.351Z,17.25
2023-06-06T20:19:06.024Z,17.11
2023-06-06T20:22:11.626Z,16.93
2023-06-06T20:25:15.556Z,16.89
2023-06-06T20:28:18.099Z,16.80
2023-06-06T20:31:20.984Z,16.67
2023-06-06T20:34:23.549Z,16.52
2023-06-06T20:37:26.357Z,16.47
2023-06-06T20:40:30.209Z,16.45
2023-06-06T20:43:32.752Z,16.50
2023-06-06T20:46:35.751Z,16.41
2023-06-06T20:49:38.409Z,16.45
2023-06-06T20:52:41.852Z,16.56
2023-06-06T20:55:46.317Z,16.61
2023-06-06T20:58:48.876Z,16.58
2023-06-06T21:01:51.814Z,16.50
2023-06-06T21:04:54.410Z,16.45
2023-06-06T21:07:57.067Z,16.37
2023-06-06T21:11:01.431Z,16.24
2023-06-06T21:14:04.019Z,16.13
2023-06-06T21:17:06.718Z,16.07
2023-06-06T21:20:10.685Z,16.06
2023-06-06T21:23:13.258Z,16.04
2023-06-06T21:26:17.477Z,16.00
2023-06-06T21:29:20.081Z,15.89
2023-06-06T21:32:23.053Z,15.70
2023-06-06T21:35:25.797Z,15.58
2023-06-06T21:38:28.432Z,15.44
